Time;durP1;ratioP1;P1;durP2;ratioP2;P2;SDS_P1;SDS_P2;PMS_P1;PMS_P2;Temp;Humidity;BMP_temperature;BMP_pressure;BME280_temperature;BME280_humidity;BME280_pressure;Samples;Min_cycle;Max_cycle;Signal;HPM_P1;HPM_P2
2022/09/17 00:00:04;;;;;;;;;;;;;;;;;;5114490;28;20323;-54
2022/09/17 00:02:30;;;;;;;;;;;;;;;;;;5110101;28;19932;-56
2022/09/17 00:04:57;;;;;;;;;;;;;;;;;;5101587;28;20340;-54
2022/09/17 00:07:23;;;;;;;;;;;;;;;;;;5093639;28;19941;-54
2022/09/17 00:09:50;;;;;;;;;;;;;;;;;;5093428;28;19928;-54
2022/09/17 00:12:18;;;;;;;;;;;;;;;;;;5093587;28;19931;-56
2022/09/17 00:14:44;;;;;;;;;;;;;;;;;;5100439;28;19923;-55
2022/09/17 00:17:11;;;;;;;;;;;;;;;;;;5113862;28;19924;-55
2022/09/17 00:19:39;;;;;;;;;;;;;;;;;;5102307;28;20032;-56
2022/09/17 00:22:05;;;;;;;;;;;;;;;;;;5093251;28;20454;-54
2022/09/17 00:24:32;;;;;;;;;;;;;;;;;;5095705;28;19924;-55
2022/09/17 00:26:58;;;;;;;;;;;;;;;;;;5112832;28;19953;-55
2022/09/17 00:29:26;;;;;;;;;;;;;;;;;;5113391;28;20304;-54
2022/09/17 00:31:53;;;;;;;;;;;;;;;;;;5113752;28;19924;-52
2022/09/17 00:34:19;;;;;;;;;;;;;;;;;;5113114;28;19933;-56
2022/09/17 00:36:46;;;;;;;;;;;;;;;;;;5094572;28;19924;-57
2022/09/17 00:39:14;;;;;;;;;;;;;;;;;;5092884;28;19928;-57
2022/09/17 00:41:41;;;;;;;;;;;;;;;;;;5093085;28;19953;-57
2022/09/17 00:44:27;;;;;;;;;;;;;;;;;;5092989;28;20011;-55
2022/09/17 00:46:55;;;;;;;;;;;;;;;;;;5094039;28;19964;-57
2022/09/17 00:49:31;;;;;;;;;;;;;;;;;;5122967;22;19924;-77
2022/09/17 00:52:00;;;;;;;;;;;;;;;;;;5058623;28;19963;-77
2022/09/17 00:54:26;;;;;;;;;;;;;;;;;;5056839;28;19951;-77
2022/09/17 00:56:53;;;;;;;;;;;;;;;;;;5057461;28;20473;-78
2022/09/17 00:59:21;;;;;;;;;;;;;;;;;;5057032;28;19978;-77
2022/09/17 01:01:47;;;;;;;;;;;;;;;;;;5056379;28;19925;-78
2022/09/17 01:04:17;;;;;;;;;;;;;;;;;;5056918;28;20378;-77
2022/09/17 01:06:49;;;;;;;;;;;;;;;;;;5056897;28;19929;-78
2022/09/17 01:09:22;;;;;;;;;;;;;;;;;;5049097;28;20032;-76
2022/09/17 01:11:59;;;;;;;;;;;;;;;;;;5053976;28;19931;-76
2022/09/17 01:14:34;;;;;;;;;;;;;;;;;;5055912;28;20028;-78
2022/09/17 01:17:05;;;;;;;;;;;;;;;;;;5055436;28;19925;-77
2022/09/17 01:19:44;;;;;;;;;;;;;;;;;;5054912;28;19925;-77
2022/09/17 01:22:14;;;;;;;;;;;;;;;;;;5054690;28;20473;-77
2022/09/17 01:24:56;;;;;;;;;;;;;;;;;;5054800;28;19924;-78
2022/09/17 01:27:46;;;;;;;;;;;;;;;;;;5054536;28;20015;-77
2022/09/17 01:30:21;;;;;;;;;;;;;;;;;;5052068;28;19937;-75
2022/09/17 01:32:52;;;;;;;;;;;;;;;;;;5054045;28;19935;-77
2022/09/17 01:35:21;;;;;;;;;;;;;;;;;;5054458;28;19925;-78
2022/09/17 01:37:51;;;;;;;;;;;;;;;;;;5056456;28;20027;-77
2022/09/17 01:40:23;;;;;;;;;;;;;;;;;;5057224;28;19986;-78
2022/09/17 01:42:53;;;;;;;;;;;;;;;;;;5057023;28;19974;-77
2022/09/17 01:45:23;;;;;;;;;;;;;;;;;;5056075;28;20244;-77
2022/09/17 01:47:52;;;;;;;;;;;;;;;;;;5056395;28;19925;-77
2022/09/17 01:50:22;;;;;;;;;;;;;;;;;;5054388;28;20008;-77
2022/09/17 01:52:50;;;;;;;;;;;;;;;;;;5052960;28;19929;-76
2022/09/17 01:55:18;;;;;;;;;;;;;;;;;;5053183;28;19925;-77
2022/09/17 01:57:47;;;;;;;;;;;;;;;;;;5052558;28;20310;-77
2022/09/17 02:00:16;;;;;;;;;;;;;;;;;;5053840;28;20524;-76
2022/09/17 02:02:45;;;;;;;;;;;;;;;;;;5055537;28;19947;-77
2022/09/17 02:05:16;;;;;;;;;;;;;;;;;;5056535;28;19931;-78
2022/09/17 02:07:44;;;;;;;;;;;;;;;;;;5053013;28;19924;-77
2022/09/17 02:10:12;;;;;;;;;;;;;;;;;;5054598;28;20364;-78
2022/09/17 02:12:40;;;;;;;;;;;;;;;;;;5055919;28;19925;-77
2022/09/17 02:15:11;;;;;;;;;;;;;;;;;;5054206;28;20125;-77
2022/09/17 02:17:39;;;;;;;;;;;;;;;;;;5055342;28;19998;-78
2022/09/17 02:20:06;;;;;;;;;;;;;;;;;;5053580;28;19966;-77
2022/09/17 02:22:38;;;;;;;;;;;;;;;;;;5055266;28;20333;-77
2022/09/17 02:25:08;;;;;;;;;;;;;;;;;;5055943;28;19948;-77
2022/09/17 02:27:37;;;;;;;;;;;;;;;;;;5057772;28;19971;-76
2022/09/17 02:30:04;;;;;;;;;;;;;;;;;;5055347;28;19947;-77
2022/09/17 02:32:30;;;;;;;;;;;;;;;;;;5056572;28;20399;-77
2022/09/17 02:34:57;;;;;;;;;;;;;;;;;;5057573;28;19925;-77
2022/09/17 02:37:23;;;;;;;;;;;;;;;;;;5056243;28;19924;-76
2022/09/17 02:39:51;;;;;;;;;;;;;;;;;;5054073;28;20069;-76
2022/09/17 02:42:22;;;;;;;;;;;;;;;;;;5054416;28;19929;-76
2022/09/17 02:44:54;;;;;;;;;;;;;;;;;;5055671;28;19924;-77
2022/09/17 02:47:28;;;;;;;;;;;;;;;;;;5055639;28;19932;-77
2022/09/17 02:50:01;;;;;;;;;;;;;;;;;;5057107;28;19925;-76
2022/09/17 02:52:30;;;;;;;;;;;;;;;;;;5057823;28;20307;-76
2022/09/17 02:55:02;;;;;;;;;;;;;;;;;;5057083;28;20012;-77
2022/09/17 02:57:33;;;;;;;;;;;;;;;;;;5059686;28;19960;-78
2022/09/17 03:00:05;;;;;;;;;;;;;;;;;;5059409;28;20311;-77
2022/09/17 03:02:34;;;;;;;;;;;;;;;;;;5046523;28;19976;-78
2022/09/17 03:05:02;;;;;;;;;;;;;;;;;;5056682;28;19925;-78
2022/09/17 03:07:28;;;;;;;;;;;;;;;;;;5038858;28;20315;-78
2022/09/17 03:09:55;;;;;;;;;;;;;;;;;;5055636;28;20366;-77
2022/09/17 03:12:23;;;;;;;;;;;;;;;;;;5057661;28;19932;-77
2022/09/17 03:14:49;;;;;;;;;;;;;;;;;;5059915;28;20441;-78
2022/09/17 03:17:16;;;;;;;;;;;;;;;;;;5058093;28;19924;-77
2022/09/17 03:19:42;;;;;;;;;;;;;;;;;;5060039;28;19935;-77
2022/09/17 03:22:08;;;;;;;;;;;;;;;;;;5058310;28;19929;-75
2022/09/17 03:24:35;;;;;;;;;;;;;;;;;;5056956;28;20486;-77
2022/09/17 03:27:01;;;;;;;;;;;;;;;;;;5055656;28;19925;-76
2022/09/17 03:29:29;;;;;;;;;;;;;;;;;;5056430;28;19935;-77
2022/09/17 03:31:55;;;;;;;;;;;;;;;;;;5059448;28;19947;-78
2022/09/17 03:34:22;;;;;;;;;;;;;;;;;;5060305;28;20379;-78
2022/09/17 03:36:49;;;;;;;;;;;;;;;;;;5056470;28;19925;-77
2022/09/17 03:39:15;;;;;;;;;;;;;;;;;;5056628;28;19931;-77
2022/09/17 03:41:42;;;;;;;;;;;;;;;;;;5059394;28;20021;-77
2022/09/17 03:44:09;;;;;;;;;;;;;;;;;;5058290;28;19936;-76
2022/09/17 03:46:37;;;;;;;;;;;;;;;;;;5035883;28;19971;-76
2022/09/17 03:49:03;;;;;;;;;;;;;;;;;;5036361;28;19925;-78
2022/09/17 03:51:30;;;;;;;;;;;;;;;;;;5058787;28;19968;-77
2022/09/17 03:53:56;;;;;;;;;;;;;;;;;;5056954;28;20376;-77
2022/09/17 03:56:23;;;;;;;;;;;;;;;;;;5058447;28;19937;-77
2022/09/17 03:58:50;;;;;;;;;;;;;;;;;;5059177;28;19925;-78
2022/09/17 04:01:16;;;;;;;;;;;;;;;;;;5059525;28;19924;-77
2022/09/17 04:03:44;;;;;;;;;;;;;;;;;;5059768;28;19935;-77
2022/09/17 04:06:11;;;;;;;;;;;;;;;;;;5058855;28;20403;-77
2022/09/17 04:08:37;;;;;;;;;;;;;;;;;;5059424;28;19976;-77
2022/09/17 04:11:04;;;;;;;;;;;;;;;;;;5059597;28;20401;-78
2022/09/17 04:13:30;;;;;;;;;;;;;;;;;;5058637;28;19975;-77
2022/09/17 04:15:56;;;;;;;;;;;;;;;;;;5054961;28;20007;-76
2022/09/17 04:18:23;;;;;;;;;;;;;;;;;;5055087;28;19925;-77
2022/09/17 04:20:51;;;;;;;;;;;;;;;;;;5053975;28;20353;-76
2022/09/17 04:23:17;;;;;;;;;;;;;;;;;;5055747;28;19929;-76
2022/09/17 04:25:43;;;;;;;;;;;;;;;;;;5056892;28;20276;-78
2022/09/17 04:28:10;;;;;;;;;;;;;;;;;;5056348;28;19924;-78
2022/09/17 04:30:36;;;;;;;;;;;;;;;;;;5053161;28;20004;-77
2022/09/17 04:33:03;;;;;;;;;;;;;;;;;;5054068;28;19929;-77
2022/09/17 04:35:29;;;;;;;;;;;;;;;;;;5056199;28;19928;-76
2022/09/17 04:37:57;;;;;;;;;;;;;;;;;;5057145;28;19925;-77
2022/09/17 04:40:25;;;;;;;;;;;;;;;;;;5058047;28;19991;-77
2022/09/17 04:42:52;;;;;;;;;;;;;;;;;;5058444;28;20380;-77
2022/09/17 04:45:18;;;;;;;;;;;;;;;;;;5059101;28;19924;-78
2022/09/17 04:47:45;;;;;;;;;;;;;;;;;;5058525;28;19925;-78
2022/09/17 04:50:12;;;;;;;;;;;;;;;;;;5057060;28;19925;-78
2022/09/17 04:52:42;;;;;;;;;;;;;;;;;;5058422;28;20401;-78
2022/09/17 04:55:10;;;;;;;;;;;;;;;;;;5058311;28;19925;-78
2022/09/17 04:57:37;;;;;;;;;;;;;;;;;;5058239;28;19968;-76
2022/09/17 05:00:03;;;;;;;;;;;;;;;;;;5052959;28;19925;-77
2022/09/17 05:02:30;;;;;;;;;;;;;;;;;;5041452;28;19932;-75
2022/09/17 05:04:57;;;;;;;;;;;;;;;;;;5045536;28;20375;-77
2022/09/17 05:07:24;;;;;;;;;;;;;;;;;;5052708;28;19983;-76
2022/09/17 05:09:50;;;;;;;;;;;;;;;;;;5052130;28;19947;-76
2022/09/17 05:12:18;;;;;;;;;;;;;;;;;;5052424;28;20362;-77
2022/09/17 05:14:45;;;;;;;;;;;;;;;;;;5052464;28;20015;-77
2022/09/17 05:17:11;;;;;;;;;;;;;;;;;;5052634;28;19932;-77
2022/09/17 05:19:38;;;;;;;;;;;;;;;;;;5051800;28;20364;-77
2022/09/17 05:22:04;;;;;;;;;;;;;;;;;;5052763;28;19931;-76
2022/09/17 05:24:30;;;;;;;;;;;;;;;;;;5052189;28;19931;-76
2022/09/17 05:26:57;;;;;;;;;;;;;;;;;;5052411;28;19925;-77
2022/09/17 05:29:25;;;;;;;;;;;;;;;;;;5051938;28;19944;-78
2022/09/17 05:31:51;;;;;;;;;;;;;;;;;;5052482;28;19925;-77
2022/09/17 05:34:17;;;;;;;;;;;;;;;;;;5051848;28;20463;-78
2022/09/17 05:36:44;;;;;;;;;;;;;;;;;;5052240;28;19931;-77
2022/09/17 05:39:10;;;;;;;;;;;;;;;;;;5051742;28;19929;-77
2022/09/17 05:41:37;;;;;;;;;;;;;;;;;;5052363;28;19924;-77
2022/09/17 05:44:03;;;;;;;;;;;;;;;;;;5052191;28;19931;-78
2022/09/17 05:46:31;;;;;;;;;;;;;;;;;;5051968;28;20549;-77
2022/09/17 05:48:57;;;;;;;;;;;;;;;;;;5051455;28;19925;-77
2022/09/17 05:51:24;;;;;;;;;;;;;;;;;;5052124;28;19925;-77
2022/09/17 05:53:50;;;;;;;;;;;;;;;;;;5051983;28;19928;-77
2022/09/17 05:56:18;;;;;;;;;;;;;;;;;;5052394;28;20376;-78
2022/09/17 05:58:44;;;;;;;;;;;;;;;;;;5051680;28;20299;-76
2022/09/17 06:01:14;;;;;;;;;;;;;;;;;;5052279;28;19939;-78
2022/09/17 06:03:42;;;;;;;;;;;;;;;;;;5041687;28;19929;-78
2022/09/17 06:06:09;;;;;;;;;;;;;;;;;;5032352;28;20311;-75
2022/09/17 06:08:36;;;;;;;;;;;;;;;;;;5040138;28;19935;-78
2022/09/17 06:11:04;;;;;;;;;;;;;;;;;;5052056;28;19925;-78
2022/09/17 06:13:30;;;;;;;;;;;;;;;;;;5051582;28;19962;-76
2022/09/17 06:15:56;;;;;;;;;;;;;;;;;;5052141;28;19928;-76
2022/09/17 06:18:23;;;;;;;;;;;;;;;;;;5051292;28;19925;-76
2022/09/17 06:20:54;;;;;;;;;;;;;;;;;;5051523;28;19925;-76
2022/09/17 06:23:21;;;;;;;;;;;;;;;;;;5051233;28;19924;-76
2022/09/17 06:25:52;;;;;;;;;;;;;;;;;;5054119;28;19963;-75
2022/09/17 06:28:18;;;;;;;;;;;;;;;;;;5055032;28;19924;-77
2022/09/17 06:30:45;;;;;;;;;;;;;;;;;;5055609;28;19925;-77
2022/09/17 06:33:11;;;;;;;;;;;;;;;;;;5055869;28;19924;-75
2022/09/17 06:35:38;;;;;;;;;;;;;;;;;;5055797;28;20303;-76
2022/09/17 06:38:05;;;;;;;;;;;;;;;;;;5055450;28;19929;-76
2022/09/17 06:40:32;;;;;;;;;;;;;;;;;;5054664;28;19924;-75
2022/09/17 06:42:59;;;;;;;;;;;;;;;;;;5054759;28;19925;-75
2022/09/17 06:45:25;;;;;;;;;;;;;;;;;;5055482;28;19925;-75
2022/09/17 06:47:52;;;;;;;;;;;;;;;;;;5058935;28;19925;-76
2022/09/17 06:50:18;;;;;;;;;;;;;;;;;;5056001;28;19925;-76
2022/09/17 06:55:14;;;;;;;;;;;;;;;;;;5066162;28;20307;-75
2022/09/17 06:57:41;;;;;;;;;;;;;;;;;;5067314;28;19925;-74
2022/09/17 07:00:08;;;;;;;;;;;;;;;;;;5066044;28;19929;-75
2022/09/17 07:02:35;;;;;;;;;;;;;;;;;;5067831;28;20434;-75
2022/09/17 07:05:01;;;;;;;;;;;;;;;;;;5043403;28;19937;-76
2022/09/17 07:07:28;;;;;;;;;;;;;;;;;;5054240;28;20020;-74
2022/09/17 07:09:54;;;;;;;;;;;;;;;;;;5054988;28;19951;-74
2022/09/17 07:12:22;;;;;;;;;;;;;;;;;;5052799;28;19925;-73
2022/09/17 07:14:48;;;;;;;;;;;;;;;;;;5053968;28;20007;-74
2022/09/17 07:17:15;;;;;;;;;;;;;;;;;;5045751;28;19925;-75
2022/09/17 07:19:41;;;;;;;;;;;;;;;;;;5042432;28;19964;-74
2022/09/17 07:22:08;;;;;;;;;;;;;;;;;;5051413;28;19943;-74
2022/09/17 07:24:35;;;;;;;;;;;;;;;;;;5049209;28;19925;-75
2022/09/17 07:27:01;;;;;;;;;;;;;;;;;;5052367;28;20387;-75
2022/09/17 07:29:30;;;;;;;;;;;;;;;;;;5044647;28;19936;-76
2022/09/17 07:31:57;;;;;;;;;;;;;;;;;;5050674;28;20338;-75
2022/09/17 07:34:24;;;;;;;;;;;;;;;;;;5053992;28;20383;-75
2022/09/17 07:36:50;;;;;;;;;;;;;;;;;;5049736;28;20422;-76
2022/09/17 07:39:17;;;;;;;;;;;;;;;;;;5043626;28;19932;-75
2022/09/17 07:41:43;;;;;;;;;;;;;;;;;;5050882;28;20016;-75
2022/09/17 07:44:09;;;;;;;;;;;;;;;;;;5055749;28;20391;-74
2022/09/17 07:46:37;;;;;;;;;;;;;;;;;;5058735;28;19925;-74
2022/09/17 07:49:04;;;;;;;;;;;;;;;;;;5056549;28;19925;-74
2022/09/17 07:51:30;;;;;;;;;;;;;;;;;;5057766;28;19936;-75
2022/09/17 07:53:57;;;;;;;;;;;;;;;;;;5058228;28;19968;-75
2022/09/17 07:56:25;;;;;;;;;;;;;;;;;;5058541;28;19972;-75
2022/09/17 07:58:51;;;;;;;;;;;;;;;;;;5054723;28;19925;-75
2022/09/17 08:01:19;;;;;;;;;;;;;;;;;;5051977;28;19943;-73
2022/09/17 08:03:49;;;;;;;;;;;;;;;;;;5042647;28;19925;-75
2022/09/17 08:06:17;;;;;;;;;;;;;;;;;;5035913;28;19925;-74
2022/09/17 08:08:47;;;;;;;;;;;;;;;;;;5037365;28;19932;-75
2022/09/17 08:11:15;;;;;;;;;;;;;;;;;;5036118;28;19925;-75
2022/09/17 08:13:41;;;;;;;;;;;;;;;;;;5036191;28;19925;-76
2022/09/17 08:16:09;;;;;;;;;;;;;;;;;;5052065;28;20453;-74
2022/09/17 08:18:36;;;;;;;;;;;;;;;;;;5053938;28;19962;-75
2022/09/17 08:21:04;;;;;;;;;;;;;;;;;;5054634;28;19924;-75
2022/09/17 08:23:32;;;;;;;;;;;;;;;;;;5048477;28;19972;-75
2022/09/17 08:25:59;;;;;;;;;;;;;;;;;;5052456;28;20360;-75
2022/09/17 08:28:27;;;;;;;;;;;;;;;;;;5053963;28;19932;-75
2022/09/17 08:30:54;;;;;;;;;;;;;;;;;;5053797;28;19940;-75
2022/09/17 08:33:21;;;;;;;;;;;;;;;;;;5054317;28;20406;-75
2022/09/17 08:35:51;;;;;;;;;;;;;;;;;;5054187;28;20326;-75
2022/09/17 08:38:19;;;;;;;;;;;;;;;;;;5054177;28;20455;-74
2022/09/17 08:40:52;;;;;;;;;;;;;;;;;;5054250;28;20587;-74
2022/09/17 08:43:19;;;;;;;;;;;;;;;;;;5053182;28;19932;-75
2022/09/17 08:45:51;;;;;;;;;;;;;;;;;;5046850;28;19936;-73
2022/09/17 08:48:18;;;;;;;;;;;;;;;;;;5033002;28;19975;-75
2022/09/17 08:50:44;;;;;;;;;;;;;;;;;;5044552;28;19925;-75
2022/09/17 08:53:23;;;;;;;;;;;;;;;;;;5040597;28;19925;-75
2022/09/17 08:55:53;;;;;;;;;;;;;;;;;;5041729;28;19925;-75
2022/09/17 08:58:26;;;;;;;;;;;;;;;;;;5034537;28;19991;-74
2022/09/17 09:00:54;;;;;;;;;;;;;;;;;;5041448;28;20611;-75
2022/09/17 09:03:27;;;;;;;;;;;;;;;;;;5050094;28;19932;-75
2022/09/17 09:05:55;;;;;;;;;;;;;;;;;;5038633;28;19932;-75
2022/09/17 09:08:26;;;;;;;;;;;;;;;;;;5052428;28;19979;-75
2022/09/17 09:10:55;;;;;;;;;;;;;;;;;;5045964;28;19925;-75
2022/09/17 09:13:23;;;;;;;;;;;;;;;;;;5051446;28;19925;-75
2022/09/17 09:15:53;;;;;;;;;;;;;;;;;;5042644;28;19935;-75
2022/09/17 09:18:20;;;;;;;;;;;;;;;;;;5055517;28;19925;-75
2022/09/17 09:20:50;;;;;;;;;;;;;;;;;;5051116;28;19924;-76
2022/09/17 09:23:18;;;;;;;;;;;;;;;;;;5052480;28;20047;-76
2022/09/17 09:25:52;;;;;;;;;;;;;;;;;;5051864;28;19925;-76
2022/09/17 09:28:26;;;;;;;;;;;;;;;;;;5047532;28;19951;-75
2022/09/17 09:31:00;;;;;;;;;;;;;;;;;;5052968;28;20383;-75
2022/09/17 09:33:28;;;;;;;;;;;;;;;;;;5051186;28;20015;-75
2022/09/17 09:35:54;;;;;;;;;;;;;;;;;;5049495;28;20448;-75
2022/09/17 09:38:25;;;;;;;;;;;;;;;;;;5048298;28;19925;-75
2022/09/17 09:40:54;;;;;;;;;;;;;;;;;;5051906;28;19932;-75
2022/09/17 09:43:22;;;;;;;;;;;;;;;;;;5031995;28;19925;-74
2022/09/17 09:45:58;;;;;;;;;;;;;;;;;;5049281;28;19924;-74
2022/09/17 09:48:32;;;;;;;;;;;;;;;;;;5051523;28;19972;-76
2022/09/17 09:51:07;;;;;;;;;;;;;;;;;;5047706;28;20015;-75
2022/09/17 09:53:39;;;;;;;;;;;;;;;;;;5051462;28;20426;-75
2022/09/17 09:56:12;;;;;;;;;;;;;;;;;;5051797;28;20000;-75
2022/09/17 09:58:40;;;;;;;;;;;;;;;;;;5051961;28;19936;-74
2022/09/17 10:01:11;;;;;;;;;;;;;;;;;;5055637;28;19971;-74
2022/09/17 10:03:39;;;;;;;;;;;;;;;;;;5054953;28;19931;-75
2022/09/17 10:06:07;;;;;;;;;;;;;;;;;;5056091;28;20303;-75
2022/09/17 10:08:34;;;;;;;;;;;;;;;;;;5054897;28;19924;-75
2022/09/17 10:11:02;;;;;;;;;;;;;;;;;;5055845;28;19936;-75
2022/09/17 10:13:30;;;;;;;;;;;;;;;;;;5055411;28;19932;-75
2022/09/17 10:16:02;;;;;;;;;;;;;;;;;;5056135;28;20020;-75
2022/09/17 10:18:28;;;;;;;;;;;;;;;;;;5055037;28;19928;-76
2022/09/17 10:20:56;;;;;;;;;;;;;;;;;;5055702;28;19976;-76
2022/09/17 10:23:23;;;;;;;;;;;;;;;;;;5055181;28;20413;-75
2022/09/17 10:25:51;;;;;;;;;;;;;;;;;;5056264;28;20369;-76
2022/09/17 10:28:30;;;;;;;;;;;;;;;;;;5055209;28;20426;-75
2022/09/17 10:30:59;;;;;;;;;;;;;;;;;;5054962;28;20011;-75
2022/09/17 10:33:27;;;;;;;;;;;;;;;;;;5052951;28;19980;-74
2022/09/17 10:36:05;;;;;;;;;;;;;;;;;;5055335;28;19925;-75
2022/09/17 10:38:35;;;;;;;;;;;;;;;;;;5055159;28;19929;-74
2022/09/17 10:41:23;;;;;;;;;;;;;;;;;;5055368;28;20119;-75
2022/09/17 10:43:50;;;;;;;;;;;;;;;;;;5046660;28;19925;-75
2022/09/17 10:46:21;;;;;;;;;;;;;;;;;;5035481;28;19979;-74
2022/09/17 10:48:54;;;;;;;;;;;;;;;;;;5053298;28;19924;-75
2022/09/17 10:51:22;;;;;;;;;;;;;;;;;;5052998;28;19925;-75
2022/09/17 10:53:59;;;;;;;;;;;;;;;;;;5053339;28;19935;-74
2022/09/17 10:56:28;;;;;;;;;;;;;;;;;;5054836;28;19924;-75
2022/09/17 10:58:56;;;;;;;;;;;;;;;;;;5054131;28;20016;-74
2022/09/17 11:01:31;;;;;;;;;;;;;;;;;;5054338;28;20015;-74
2022/09/17 11:04:10;;;;;;;;;;;;;;;;;;5035040;28;19932;-75
2022/09/17 11:07:06;;;;;;;;;;;;;;;;;;5045550;28;20390;-75
2022/09/17 11:09:39;;;;;;;;;;;;;;;;;;4972982;28;19937;-75
2022/09/17 11:12:16;;;;;;;;;;;;;;;;;;5037920;28;19932;-75
2022/09/17 11:14:50;;;;;;;;;;;;;;;;;;5054509;28;19925;-75
2022/09/17 11:17:28;;;;;;;;;;;;;;;;;;5054432;28;20002;-74
2022/09/17 11:19:58;;;;;;;;;;;;;;;;;;5053345;28;19925;-74
2022/09/17 11:22:30;;;;;;;;;;;;;;;;;;5053825;28;19925;-74
2022/09/17 11:25:14;;;;;;;;;;;;;;;;;;5052294;28;19925;-73
2022/09/17 11:27:50;;;;;;;;;;;;;;;;;;5046186;28;19976;-75
2022/09/17 11:30:18;;;;;;;;;;;;;;;;;;5036410;28;19931;-74
2022/09/17 11:33:00;;;;;;;;;;;;;;;;;;5052763;28;19932;-78
2022/09/17 11:35:28;;;;;;;;;;;;;;;;;;5055719;28;20023;-77
2022/09/17 11:37:57;;;;;;;;;;;;;;;;;;5055522;28;19925;-76
2022/09/17 11:40:25;;;;;;;;;;;;;;;;;;5053373;28;20248;-77
2022/09/17 11:42:54;;;;;;;;;;;;;;;;;;5054160;28;19929;-77
2022/09/17 11:45:24;;;;;;;;;;;;;;;;;;5053607;28;20027;-77
2022/09/17 11:47:54;;;;;;;;;;;;;;;;;;5054616;28;19935;-77
2022/09/17 11:50:25;;;;;;;;;;;;;;;;;;5054016;28;20012;-76
2022/09/17 11:53:00;;;;;;;;;;;;;;;;;;5052559;28;19931;-76
2022/09/17 11:55:30;;;;;;;;;;;;;;;;;;5053149;28;20432;-76
2022/09/17 11:58:00;;;;;;;;;;;;;;;;;;5053977;28;20291;-77
2022/09/17 12:00:29;;;;;;;;;;;;;;;;;;5053500;28;20028;-77
2022/09/17 12:02:57;;;;;;;;;;;;;;;;;;5038860;28;19925;-77
2022/09/17 12:05:26;;;;;;;;;;;;;;;;;;5044087;28;20280;-76
2022/09/17 12:07:54;;;;;;;;;;;;;;;;;;5043125;28;19931;-76
2022/09/17 12:10:35;;;;;;;;;;;;;;;;;;5053070;28;19975;-76
2022/09/17 12:13:05;;;;;;;;;;;;;;;;;;5046756;28;19925;-76
2022/09/17 12:15:34;;;;;;;;;;;;;;;;;;5053251;28;19929;-76
2022/09/17 12:18:07;;;;;;;;;;;;;;;;;;5053570;28;19991;-76
2022/09/17 12:20:36;;;;;;;;;;;;;;;;;;5053113;28;20012;-76
2022/09/17 12:23:06;;;;;;;;;;;;;;;;;;5051917;28;20391;-75
2022/09/17 12:25:35;;;;;;;;;;;;;;;;;;5053553;28;20003;-76
2022/09/17 12:28:06;;;;;;;;;;;;;;;;;;5053340;28;19964;-77
2022/09/17 12:30:38;;;;;;;;;;;;;;;;;;5053250;28;19931;-77
2022/09/17 12:33:19;;;;;;;;;;;;;;;;;;5037061;28;19932;-77
2022/09/17 12:36:00;;;;;;;;;;;;;;;;;;5034372;28;20003;-77
2022/09/17 12:38:36;;;;;;;;;;;;;;;;;;5033932;28;20015;-76
2022/09/17 12:41:06;;;;;;;;;;;;;;;;;;5048123;28;20391;-76
2022/09/17 12:43:41;;;;;;;;;;;;;;;;;;5054028;28;19931;-76
2022/09/17 12:46:13;;;;;;;;;;;;;;;;;;5053782;28;19931;-77
2022/09/17 12:48:47;;;;;;;;;;;;;;;;;;5053478;28;19931;-77
2022/09/17 12:51:23;;;;;;;;;;;;;;;;;;5053574;28;19979;-77
2022/09/17 12:53:55;;;;;;;;;;;;;;;;;;5033286;28;19935;-77
2022/09/17 12:56:29;;;;;;;;;;;;;;;;;;5047676;28;19975;-77
2022/09/17 12:59:02;;;;;;;;;;;;;;;;;;5036820;28;19972;-77
2022/09/17 13:01:32;;;;;;;;;;;;;;;;;;5042962;28;19925;-77
2022/09/17 13:04:03;;;;;;;;;;;;;;;;;;5052834;28;20007;-76
2022/09/17 13:06:43;;;;;;;;;;;;;;;;;;5053341;28;19925;-76
2022/09/17 13:09:26;;;;;;;;;;;;;;;;;;5053162;28;20025;-76
2022/09/17 13:12:03;;;;;;;;;;;;;;;;;;5041892;28;20019;-76
2022/09/17 13:14:35;;;;;;;;;;;;;;;;;;5041540;28;19931;-77
2022/09/17 13:17:05;;;;;;;;;;;;;;;;;;5047422;28;19925;-77
2022/09/17 13:19:36;;;;;;;;;;;;;;;;;;5044608;28;19935;-77
2022/09/17 13:22:09;;;;;;;;;;;;;;;;;;5052825;28;19925;-77
2022/09/17 13:24:36;;;;;;;;;;;;;;;;;;5045538;28;20693;-77
2022/09/17 13:27:04;;;;;;;;;;;;;;;;;;5046250;28;19924;-77
2022/09/17 13:29:57;;;;;;;;;;;;;;;;;;5040793;28;19929;-77
2022/09/17 13:32:43;;;;;;;;;;;;;;;;;;5003330;28;19925;-77
2022/09/17 13:35:27;;;;;;;;;;;;;;;;;;5052016;28;19956;-77
2022/09/17 13:37:57;;;;;;;;;;;;;;;;;;5043935;28;20016;-76
2022/09/17 13:40:24;;;;;;;;;;;;;;;;;;5039893;28;19925;-76
2022/09/17 13:42:54;;;;;;;;;;;;;;;;;;5045322;28;19929;-76
2022/09/17 13:45:23;;;;;;;;;;;;;;;;;;5031971;28;20304;-76
2022/09/17 13:47:51;;;;;;;;;;;;;;;;;;5039188;28;19967;-77
2022/09/17 13:50:25;;;;;;;;;;;;;;;;;;5051607;28;19925;-76
2022/09/17 13:52:51;;;;;;;;;;;;;;;;;;5046145;28;19940;-76
2022/09/17 13:55:33;;;;;;;;;;;;;;;;;;5044450;28;19925;-76
2022/09/17 13:58:00;;;;;;;;;;;;;;;;;;5043204;28;20453;-75
2022/09/17 14:00:46;;;;;;;;;;;;;;;;;;5051293;28;19925;-76
2022/09/17 14:03:33;;;;;;;;;;;;;;;;;;5049534;28;19971;-76
2022/09/17 14:06:20;;;;;;;;;;;;;;;;;;5051035;28;20314;-76
2022/09/17 14:08:48;;;;;;;;;;;;;;;;;;5050539;28;20388;-76
2022/09/17 14:11:31;;;;;;;;;;;;;;;;;;5051463;28;19975;-76
2022/09/17 14:14:15;;;;;;;;;;;;;;;;;;5050821;28;20096;-76
2022/09/17 14:16:46;;;;;;;;;;;;;;;;;;5035073;28;19935;-77
2022/09/17 14:19:35;;;;;;;;;;;;;;;;;;5037607;28;19964;-78
2022/09/17 14:22:08;;;;;;;;;;;;;;;;;;5056678;28;19979;-78
2022/09/17 14:24:36;;;;;;;;;;;;;;;;;;5054314;28;19925;-81
2022/09/17 14:27:10;;;;;;;;;;;;;;;;;;5045791;28;19931;-77
2022/09/17 14:29:47;;;;;;;;;;;;;;;;;;5038434;28;19939;-79
2022/09/17 14:32:16;;;;;;;;;;;;;;;;;;5050517;28;19933;-77
2022/09/17 14:34:42;;;;;;;;;;;;;;;;;;5032176;28;20410;-77
2022/09/17 14:37:11;;;;;;;;;;;;;;;;;;5032887;28;19932;-77
2022/09/17 14:39:39;;;;;;;;;;;;;;;;;;5032431;28;19925;-77
2022/09/17 14:42:10;;;;;;;;;;;;;;;;;;5032336;28;19925;-77
2022/09/17 14:44:37;;;;;;;;;;;;;;;;;;5042605;28;19925;-78
2022/09/17 14:47:09;;;;;;;;;;;;;;;;;;5052356;28;19925;-77
2022/09/17 14:49:36;;;;;;;;;;;;;;;;;;5048447;28;19925;-75
2022/09/17 14:52:18;;;;;;;;;;;;;;;;;;5038056;28;20368;-76
2022/09/17 14:54:45;;;;;;;;;;;;;;;;;;5051497;28;19932;-74
2022/09/17 14:57:20;;;;;;;;;;;;;;;;;;5055260;28;20007;-77
2022/09/17 14:59:51;;;;;;;;;;;;;;;;;;5055060;28;20319;-77
2022/09/17 15:02:26;;;;;;;;;;;;;;;;;;5054993;28;19940;-77
2022/09/17 15:04:53;;;;;;;;;;;;;;;;;;5054944;28;20620;-77
2022/09/17 15:07:20;;;;;;;;;;;;;;;;;;5043201;28;20380;-81
2022/09/17 15:09:49;;;;;;;;;;;;;;;;;;5038500;28;19925;-85
2022/09/17 15:12:17;;;;;;;;;;;;;;;;;;5047455;28;19925;-78
2022/09/17 15:14:43;;;;;;;;;;;;;;;;;;5068419;28;19991;-79
2022/09/17 15:17:13;;;;;;;;;;;;;;;;;;5068490;28;20360;-81
2022/09/17 15:19:42;;;;;;;;;;;;;;;;;;5061812;28;20004;-79
2022/09/17 15:22:12;;;;;;;;;;;;;;;;;;5057771;28;19924;-79
2022/09/17 15:24:40;;;;;;;;;;;;;;;;;;5059380;28;19931;-78
2022/09/17 15:27:09;;;;;;;;;;;;;;;;;;5056434;28;19943;-75
2022/09/17 15:29:38;;;;;;;;;;;;;;;;;;5049182;28;20565;-75
2022/09/17 15:32:05;;;;;;;;;;;;;;;;;;5049842;28;19925;-75
2022/09/17 15:34:32;;;;;;;;;;;;;;;;;;5039884;28;19933;-74
2022/09/17 15:37:06;;;;;;;;;;;;;;;;;;5048380;28;19925;-74
2022/09/17 15:39:38;;;;;;;;;;;;;;;;;;5038132;28;19932;-75
2022/09/17 15:42:05;;;;;;;;;;;;;;;;;;5050326;28;19931;-75
2022/09/17 15:44:32;;;;;;;;;;;;;;;;;;5044170;28;19931;-74
2022/09/17 15:47:17;;;;;;;;;;;;;;;;;;5044471;28;19931;-74
2022/09/17 15:50:03;;;;;;;;;;;;;;;;;;5040880;28;20405;-74
2022/09/17 15:52:34;;;;;;;;;;;;;;;;;;5040575;28;19925;-78
2022/09/17 15:55:00;;;;;;;;;;;;;;;;;;5037168;28;19983;-73
2022/09/17 15:57:28;;;;;;;;;;;;;;;;;;5053574;28;19932;-74
2022/09/17 15:59:55;;;;;;;;;;;;;;;;;;5049213;28;19932;-73
2022/09/17 16:02:26;;;;;;;;;;;;;;;;;;5044423;28;20621;-78
2022/09/17 16:05:17;;;;;;;;;;;;;;;;;;5048408;28;20015;-75
2022/09/17 16:07:45;;;;;;;;;;;;;;;;;;5049035;28;19925;-74
2022/09/17 16:10:13;;;;;;;;;;;;;;;;;;5041382;28;20207;-73
2022/09/17 16:12:39;;;;;;;;;;;;;;;;;;5039689;28;19931;-74
2022/09/17 16:15:06;;;;;;;;;;;;;;;;;;5041628;28;19925;-75
2022/09/17 16:17:35;;;;;;;;;;;;;;;;;;5045760;28;19932;-73
2022/09/17 16:20:16;;;;;;;;;;;;;;;;;;5049457;28;19951;-77
2022/09/17 16:22:43;;;;;;;;;;;;;;;;;;5048100;28;20027;-80
2022/09/17 16:25:11;;;;;;;;;;;;;;;;;;5054768;28;20358;-79
2022/09/17 16:27:46;;;;;;;;;;;;;;;;;;5055465;28;19972;-77
2022/09/17 16:30:15;;;;;;;;;;;;;;;;;;5052068;28;20126;-77
2022/09/17 16:32:41;;;;;;;;;;;;;;;;;;5046375;28;20394;-79
2022/09/17 16:35:08;;;;;;;;;;;;;;;;;;5053875;28;20011;-80
2022/09/17 16:37:35;;;;;;;;;;;;;;;;;;5049319;28;19925;-79
2022/09/17 16:40:02;;;;;;;;;;;;;;;;;;5053926;28;19925;-76
2022/09/17 16:42:31;;;;;;;;;;;;;;;;;;5046434;28;19925;-75
2022/09/17 16:44:59;;;;;;;;;;;;;;;;;;5043195;28;19929;-73
2022/09/17 16:47:26;;;;;;;;;;;;;;;;;;5052132;28;19925;-75
2022/09/17 16:49:52;;;;;;;;;;;;;;;;;;5053095;28;19931;-79
2022/09/17 16:52:19;;;;;;;;;;;;;;;;;;5051206;28;19969;-78
2022/09/17 16:54:45;;;;;;;;;;;;;;;;;;5034395;28;19976;-76
2022/09/17 16:57:12;;;;;;;;;;;;;;;;;;5054259;28;19996;-78
2022/09/17 16:59:39;;;;;;;;;;;;;;;;;;5057668;28;20086;-79
2022/09/17 17:02:06;;;;;;;;;;;;;;;;;;5052651;28;19983;-77
2022/09/17 17:04:32;;;;;;;;;;;;;;;;;;5046637;28;20024;-73